sensor_id;sensor_type;location;lat;lon;timestamp;P1;durP1;ratioP1;P2;durP2;ratioP2
37873;SDS011;23709;48.078;11.684;2024-01-15T05:56:06;19.10;;;7.60;;
37873;SDS011;23709;48.078;11.684;2024-01-15T05:58:39;17.13;;;8.18;;
37873;SDS011;23709;48.078;11.684;2024-01-15T06:01:11;19.05;;;8.50;;
37873;SDS011;23709;48.078;11.684;2024-01-15T06:03:43;12.47;;;6.47;;
37873;SDS011;23709;48.078;11.684;2024-01-15T06:06:16;22.17;;;9.27;;
37873;SDS011;23709;48.078;11.684;2024-01-15T06:08:48;19.17;;;8.67;;
37873;SDS011;23709;48.078;11.684;2024-01-15T06:11:21;20.33;;;7.53;;
37873;SDS011;23709;48.078;11.684;2024-01-15T06:13:54;18.08;;;8.15;;
37873;SDS011;23709;48.078;11.684;2024-01-15T06:16:26;20.77;;;8.43;;
37873;SDS011;23709;48.078;11.684;2024-01-15T06:19:00;17.35;;;7.68;;
37873;SDS011;23709;48.078;11.684;2024-01-15T06:21:32;14.63;;;7.30;;
37873;SDS011;23709;48.078;11.684;2024-01-15T06:24:05;18.45;;;7.85;;
37873;SDS011;23709;48.078;11.684;2024-01-15T06:26:37;18.15;;;8.02;;
37873;SDS011;23709;48.078;11.684;2024-01-15T06:29:10;14.03;;;6.77;;
37873;SDS011;23709;48.078;11.684;2024-01-15T06:31:42;16.10;;;8.03;;
37873;SDS011;23709;48.078;11.684;2024-01-15T06:34:15;17.20;;;8.18;;
37873;SDS011;23709;48.078;11.684;2024-01-15T06:36:48;19.80;;;7.90;;
37873;SDS011;23709;48.078;11.684;2024-01-15T06:39:20;15.88;;;7.50;;
37873;SDS011;23709;48.078;11.684;2024-01-15T06:41:53;17.67;;;7.05;;
37873;SDS011;23709;48.078;11.684;2024-01-15T06:44:25;18.02;;;7.57;;
37873;SDS011;23709;48.078;11.684;2024-01-15T06:46:58;21.77;;;8.02;;
37873;SDS011;23709;48.078;11.684;2024-01-15T06:49:34;21.55;;;8.10;;
37873;SDS011;23709;48.078;11.684;2024-01-15T06:52:06;20.43;;;7.67;;
37873;SDS011;23709;48.078;11.684;2024-01-15T06:54:39;18.08;;;8.07;;
37873;SDS011;23709;48.078;11.684;2024-01-15T06:57:11;17.88;;;8.35;;
37873;SDS011;23709;48.078;11.684;2024-01-15T06:59:44;14.88;;;7.35;;
37873;SDS011;23709;48.078;11.684;2024-01-15T07:02:16;19.83;;;8.38;;
37873;SDS011;23709;48.078;11.684;2024-01-15T07:04:48;18.05;;;7.28;;
37873;SDS011;23709;48.078;11.684;2024-01-15T07:07:20;22.08;;;7.57;;
37873;SDS011;23709;48.078;11.684;2024-01-15T07:09:52;19.30;;;8.60;;
37873;SDS011;23709;48.078;11.684;2024-01-15T07:12:25;20.33;;;8.75;;
37873;SDS011;23709;48.078;11.684;2024-01-15T07:14:57;16.45;;;7.45;;
37873;SDS011;23709;48.078;11.684;2024-01-15T07:17:30;15.68;;;7.32;;
37873;SDS011;23709;48.078;11.684;2024-01-15T07:20:04;17.20;;;7.97;;
37873;SDS011;23709;48.078;11.684;2024-01-15T07:22:40;21.67;;;7.85;;
37873;SDS011;23709;48.078;11.684;2024-01-15T07:25:13;16.45;;;6.57;;
37873;SDS011;23709;48.078;11.684;2024-01-15T07:27:45;22.10;;;8.87;;
37873;SDS011;23709;48.078;11.684;2024-01-15T07:30:19;17.77;;;7.75;;
37873;SDS011;23709;48.078;11.684;2024-01-15T07:32:53;16.65;;;7.47;;
37873;SDS011;23709;48.078;11.684;2024-01-15T07:35:26;18.40;;;8.20;;
37873;SDS011;23709;48.078;11.684;2024-01-15T07:37:58;19.60;;;8.30;;
37873;SDS011;23709;48.078;11.684;2024-01-15T07:40:31;19.20;;;8.10;;
37873;SDS011;23709;48.078;11.684;2024-01-15T07:43:03;18.90;;;7.72;;
37873;SDS011;23709;48.078;11.684;2024-01-15T07:45:35;16.60;;;7.32;;
37873;SDS011;23709;48.078;11.684;2024-01-15T07:48:08;17.07;;;8.33;;
37873;SDS011;23709;48.078;11.684;2024-01-15T07:50:41;17.20;;;7.25;;
37873;SDS011;23709;48.078;11.684;2024-01-15T07:53:14;17.67;;;7.72;;
37873;SDS011;23709;48.078;11.684;2024-01-15T07:55:47;18.10;;;8.10;;
37873;SDS011;23709;48.078;11.684;2024-01-15T07:58:19;14.55;;;6.68;;
37873;SDS011;23709;48.078;11.684;2024-01-15T08:00:52;22.73;;;8.00;;
37873;SDS011;23709;48.078;11.684;2024-01-15T08:03:24;16.20;;;7.18;;
37873;SDS011;23709;48.078;11.684;2024-01-15T08:05:58;16.13;;;7.68;;
37873;SDS011;23709;48.078;11.684;2024-01-15T08:08:31;18.10;;;7.75;;
37873;SDS011;23709;48.078;11.684;2024-01-15T08:11:03;21.65;;;8.30;;
37873;SDS011;23709;48.078;11.684;2024-01-15T08:13:36;19.17;;;8.35;;
37873;SDS011;23709;48.078;11.684;2024-01-15T08:16:08;20.23;;;7.05;;
37873;SDS011;23709;48.078;11.684;2024-01-15T08:18:41;17.23;;;7.65;;
37873;SDS011;23709;48.078;11.684;2024-01-15T08:21:16;15.57;;;6.68;;
37873;SDS011;23709;48.078;11.684;2024-01-15T08:23:48;17.95;;;7.68;;
37873;SDS011;23709;48.078;11.684;2024-01-15T08:26:20;15.05;;;7.07;;
37873;SDS011;23709;48.078;11.684;2024-01-15T08:28:53;17.88;;;7.80;;
37873;SDS011;23709;48.078;11.684;2024-01-15T08:31:25;14.00;;;6.57;;
37873;SDS011;23709;48.078;11.684;2024-01-15T08:33:58;15.10;;;7.10;;
37873;SDS011;23709;48.078;11.684;2024-01-15T08:36:31;15.68;;;7.82;;
37873;SDS011;23709;48.078;11.684;2024-01-15T08:39:03;12.32;;;5.60;;
37873;SDS011;23709;48.078;11.684;2024-01-15T08:41:36;17.05;;;7.72;;
37873;SDS011;23709;48.078;11.684;2024-01-15T08:44:08;18.23;;;7.18;;
37873;SDS011;23709;48.078;11.684;2024-01-15T08:46:40;15.75;;;7.00;;
37873;SDS011;23709;48.078;11.684;2024-01-15T08:49:12;16.10;;;6.70;;
37873;SDS011;23709;48.078;11.684;2024-01-15T08:51:45;16.33;;;6.17;;
37873;SDS011;23709;48.078;11.684;2024-01-15T08:54:17;18.80;;;7.93;;
37873;SDS011;23709;48.078;11.684;2024-01-15T08:56:49;19.37;;;7.53;;
37873;SDS011;23709;48.078;11.684;2024-01-15T08:59:21;15.50;;;7.07;;
37873;SDS011;23709;48.078;11.684;2024-01-15T09:01:57;17.33;;;8.30;;
37873;SDS011;23709;48.078;11.684;2024-01-15T09:04:29;17.30;;;7.95;;
37873;SDS011;23709;48.078;11.684;2024-01-15T09:07:02;17.27;;;7.82;;
37873;SDS011;23709;48.078;11.684;2024-01-15T09:09:34;20.58;;;9.27;;
37873;SDS011;23709;48.078;11.684;2024-01-15T09:12:06;25.30;;;9.40;;
37873;SDS011;23709;48.078;11.684;2024-01-15T09:14:39;25.30;;;10.23;;
37873;SDS011;23709;48.078;11.684;2024-01-15T09:17:12;22.48;;;9.95;;
37873;SDS011;23709;48.078;11.684;2024-01-15T09:19:44;27.20;;;8.57;;
37873;SDS011;23709;48.078;11.684;2024-01-15T09:22:18;22.60;;;8.88;;
37873;SDS011;23709;48.078;11.684;2024-01-15T09:24:50;21.08;;;9.65;;
37873;SDS011;23709;48.078;11.684;2024-01-15T09:27:22;24.45;;;11.40;;
37873;SDS011;23709;48.078;11.684;2024-01-15T09:29:54;22.52;;;9.43;;
37873;SDS011;23709;48.078;11.684;2024-01-15T09:32:27;19.13;;;8.65;;
37873;SDS011;23709;48.078;11.684;2024-01-15T09:34:59;21.33;;;10.15;;
37873;SDS011;23709;48.078;11.684;2024-01-15T09:37:31;20.65;;;10.50;;
37873;SDS011;23709;48.078;11.684;2024-01-15T09:40:17;21.30;;;8.65;;
37873;SDS011;23709;48.078;11.684;2024-01-15T09:42:52;18.35;;;8.93;;
37873;SDS011;23709;48.078;11.684;2024-01-15T09:45:25;18.23;;;8.02;;
37873;SDS011;23709;48.078;11.684;2024-01-15T09:47:59;19.13;;;9.70;;
37873;SDS011;23709;48.078;11.684;2024-01-15T09:50:31;17.23;;;9.47;;
37873;SDS011;23709;48.078;11.684;2024-01-15T09:53:04;15.57;;;7.73;;
37873;SDS011;23709;48.078;11.684;2024-01-15T09:55:37;14.48;;;6.07;;
37873;SDS011;23709;48.078;11.684;2024-01-15T09:58:09;15.50;;;8.33;;
37873;SDS011;23709;48.078;11.684;2024-01-15T10:00:42;16.10;;;7.55;;
37873;SDS011;23709;48.078;11.684;2024-01-15T10:03:15;15.05;;;7.50;;
37873;SDS011;23709;48.078;11.684;2024-01-15T10:05:48;15.93;;;7.43;;
37873;SDS011;23709;48.078;11.684;2024-01-15T10:08:21;16.52;;;6.80;;
37873;SDS011;23709;48.078;11.684;2024-01-15T10:10:55;14.43;;;7.32;;
37873;SDS011;23709;48.078;11.684;2024-01-15T10:13:27;13.67;;;7.77;;
37873;SDS011;23709;48.078;11.684;2024-01-15T10:16:01;14.75;;;7.32;;
37873;SDS011;23709;48.078;11.684;2024-01-15T10:18:34;11.75;;;6.05;;
37873;SDS011;23709;48.078;11.684;2024-01-15T10:21:09;14.85;;;6.05;;
37873;SDS011;23709;48.078;11.684;2024-01-15T10:23:41;14.77;;;6.65;;
37873;SDS011;23709;48.078;11.684;2024-01-15T10:26:13;12.10;;;5.85;;
37873;SDS011;23709;48.078;11.684;2024-01-15T10:28:50;12.45;;;6.18;;
37873;SDS011;23709;48.078;11.684;2024-01-15T10:31:25;10.30;;;5.07;;
37873;SDS011;23709;48.078;11.684;2024-01-15T10:34:13;10.05;;;5.00;;
37873;SDS011;23709;48.078;11.684;2024-01-15T10:36:47;12.52;;;5.20;;
37873;SDS011;23709;48.078;11.684;2024-01-15T10:39:24;10.75;;;5.55;;
37873;SDS011;23709;48.078;11.684;2024-01-15T10:41:56;10.00;;;4.28;;
37873;SDS011;23709;48.078;11.684;2024-01-15T14:54:46;9.38;;;4.28;;
37873;SDS011;23709;48.078;11.684;2024-01-15T14:57:20;10.23;;;4.82;;
37873;SDS011;23709;48.078;11.684;2024-01-15T14:59:53;6.73;;;3.40;;
37873;SDS011;23709;48.078;11.684;2024-01-15T15:02:27;9.68;;;4.50;;
37873;SDS011;23709;48.078;11.684;2024-01-15T15:05:03;10.02;;;4.10;;
37873;SDS011;23709;48.078;11.684;2024-01-15T15:07:36;13.60;;;4.68;;
37873;SDS011;23709;48.078;11.684;2024-01-15T15:10:09;8.40;;;3.90;;
37873;SDS011;23709;48.078;11.684;2024-01-15T15:12:43;8.38;;;4.50;;
37873;SDS011;23709;48.078;11.684;2024-01-15T15:15:16;7.15;;;4.20;;
37873;SDS011;23709;48.078;11.684;2024-01-15T15:17:53;9.18;;;4.80;;
37873;SDS011;23709;48.078;11.684;2024-01-15T15:20:25;8.85;;;4.50;;
37873;SDS011;23709;48.078;11.684;2024-01-15T15:22:57;7.30;;;3.70;;
37873;SDS011;23709;48.078;11.684;2024-01-15T15:25:30;5.50;;;2.42;;
37873;SDS011;23709;48.078;11.684;2024-01-15T15:28:03;6.50;;;3.33;;
37873;SDS011;23709;48.078;11.684;2024-01-15T15:30:41;8.32;;;3.65;;
37873;SDS011;23709;48.078;11.684;2024-01-15T15:33:14;5.00;;;3.03;;
37873;SDS011;23709;48.078;11.684;2024-01-15T15:35:48;7.43;;;3.72;;
37873;SDS011;23709;48.078;11.684;2024-01-15T15:38:22;6.95;;;4.15;;
37873;SDS011;23709;48.078;11.684;2024-01-15T15:40:55;10.87;;;4.83;;
37873;SDS011;23709;48.078;11.684;2024-01-15T15:43:27;6.65;;;3.80;;
37873;SDS011;23709;48.078;11.684;2024-01-15T15:46:00;10.65;;;4.53;;
37873;SDS011;23709;48.078;11.684;2024-01-15T15:48:33;15.38;;;6.13;;
37873;SDS011;23709;48.078;11.684;2024-01-15T15:51:05;10.20;;;5.30;;
37873;SDS011;23709;48.078;11.684;2024-01-15T15:53:38;8.32;;;4.32;;
37873;SDS011;23709;48.078;11.684;2024-01-15T15:56:10;12.32;;;5.28;;
37873;SDS011;23709;48.078;11.684;2024-01-15T15:58:43;12.30;;;5.03;;
37873;SDS011;23709;48.078;11.684;2024-01-15T16:01:15;8.27;;;4.97;;
37873;SDS011;23709;48.078;11.684;2024-01-15T16:03:50;8.47;;;4.47;;
37873;SDS011;23709;48.078;11.684;2024-01-15T16:06:26;8.00;;;4.90;;
37873;SDS011;23709;48.078;11.684;2024-01-15T16:08:59;10.65;;;5.07;;
37873;SDS011;23709;48.078;11.684;2024-01-15T16:11:31;10.07;;;5.70;;
37873;SDS011;23709;48.078;11.684;2024-01-15T16:14:05;12.88;;;5.32;;
37873;SDS011;23709;48.078;11.684;2024-01-15T16:16:38;11.65;;;5.65;;
37873;SDS011;23709;48.078;11.684;2024-01-15T16:19:30;10.98;;;5.53;;
37873;SDS011;23709;48.078;11.684;2024-01-15T16:22:23;9.77;;;5.05;;
37873;SDS011;23709;48.078;11.684;2024-01-15T16:25:17;13.50;;;6.60;;
37873;SDS011;23709;48.078;11.684;2024-01-15T16:27:50;16.65;;;7.18;;
37873;SDS011;23709;48.078;11.684;2024-01-15T16:30:22;13.02;;;6.53;;
37873;SDS011;23709;48.078;11.684;2024-01-15T16:33:11;18.40;;;7.30;;
37873;SDS011;23709;48.078;11.684;2024-01-15T16:35:50;22.00;;;8.25;;
37873;SDS011;23709;48.078;11.684;2024-01-15T16:38:23;19.77;;;8.27;;
37873;SDS011;23709;48.078;11.684;2024-01-15T16:40:56;18.23;;;8.80;;
37873;SDS011;23709;48.078;11.684;2024-01-15T16:43:28;19.95;;;8.75;;
37873;SDS011;23709;48.078;11.684;2024-01-15T16:46:01;22.42;;;8.38;;
37873;SDS011;23709;48.078;11.684;2024-01-15T16:48:34;28.77;;;13.02;;
37873;SDS011;23709;48.078;11.684;2024-01-15T16:51:07;23.15;;;10.65;;
37873;SDS011;23709;48.078;11.684;2024-01-15T16:53:39;26.08;;;12.25;;
37873;SDS011;23709;48.078;11.684;2024-01-15T16:56:13;17.05;;;8.65;;
37873;SDS011;23709;48.078;11.684;2024-01-15T16:58:46;30.80;;;11.88;;
37873;SDS011;23709;48.078;11.684;2024-01-15T17:01:18;25.95;;;10.30;;
37873;SDS011;23709;48.078;11.684;2024-01-15T17:03:51;19.23;;;9.48;;
37873;SDS011;23709;48.078;11.684;2024-01-15T17:06:24;20.83;;;10.75;;
37873;SDS011;23709;48.078;11.684;2024-01-15T17:08:56;21.13;;;10.82;;
37873;SDS011;23709;48.078;11.684;2024-01-15T17:11:29;21.95;;;10.85;;
37873;SDS011;23709;48.078;11.684;2024-01-15T17:14:01;25.63;;;11.25;;
37873;SDS011;23709;48.078;11.684;2024-01-15T17:16:35;26.83;;;12.02;;
37873;SDS011;23709;48.078;11.684;2024-01-15T17:19:07;27.30;;;11.30;;
37873;SDS011;23709;48.078;11.684;2024-01-15T17:21:40;25.95;;;12.10;;
37873;SDS011;23709;48.078;11.684;2024-01-15T17:24:12;22.70;;;10.05;;
37873;SDS011;23709;48.078;11.684;2024-01-15T17:26:44;24.05;;;11.02;;
37873;SDS011;23709;48.078;11.684;2024-01-15T17:29:17;24.35;;;10.80;;
37873;SDS011;23709;48.078;11.684;2024-01-15T17:31:52;25.38;;;10.75;;
37873;SDS011;23709;48.078;11.684;2024-01-15T17:34:29;28.73;;;12.32;;
37873;SDS011;23709;48.078;11.684;2024-01-15T17:37:04;28.00;;;12.60;;
37873;SDS011;23709;48.078;11.684;2024-01-15T17:39:36;30.38;;;13.23;;
37873;SDS011;23709;48.078;11.684;2024-01-15T17:42:10;28.23;;;13.27;;
37873;SDS011;23709;48.078;11.684;2024-01-15T17:44:43;23.60;;;11.55;;
37873;SDS011;23709;48.078;11.684;2024-01-15T17:47:15;28.73;;;12.80;;
37873;SDS011;23709;48.078;11.684;2024-01-15T17:49:48;29.65;;;12.32;;
37873;SDS011;23709;48.078;11.684;2024-01-15T17:52:20;28.20;;;12.85;;
37873;SDS011;23709;48.078;11.684;2024-01-15T17:54:54;12.02;;;5.57;;
37873;SDS011;23709;48.078;11.684;2024-01-15T17:57:27;18.40;;;5.50;;
37873;SDS011;23709;48.078;11.684;2024-01-15T17:59:59;13.13;;;4.85;;
37873;SDS011;23709;48.078;11.684;2024-01-15T18:02:38;11.10;;;4.68;;
37873;SDS011;23709;48.078;11.684;2024-01-15T18:05:10;10.55;;;5.50;;
37873;SDS011;23709;48.078;11.684;2024-01-15T18:07:43;13.35;;;5.97;;
37873;SDS011;23709;48.078;11.684;2024-01-15T18:10:16;14.10;;;7.07;;
37873;SDS011;23709;48.078;11.684;2024-01-15T18:12:48;11.77;;;6.00;;
37873;SDS011;23709;48.078;11.684;2024-01-15T18:15:21;17.13;;;5.60;;
37873;SDS011;23709;48.078;11.684;2024-01-15T18:17:53;10.73;;;5.33;;
37873;SDS011;23709;48.078;11.684;2024-01-15T18:20:26;15.25;;;8.07;;
37873;SDS011;23709;48.078;11.684;2024-01-15T18:22:59;15.00;;;7.30;;
37873;SDS011;23709;48.078;11.684;2024-01-15T18:25:31;16.27;;;8.13;;
37873;SDS011;23709;48.078;11.684;2024-01-15T18:28:04;21.08;;;9.57;;
37873;SDS011;23709;48.078;11.684;2024-01-15T18:30:37;19.90;;;9.20;;
37873;SDS011;23709;48.078;11.684;2024-01-15T18:33:12;20.33;;;9.13;;
37873;SDS011;23709;48.078;11.684;2024-01-15T18:35:45;20.02;;;10.52;;
37873;SDS011;23709;48.078;11.684;2024-01-15T18:38:18;20.73;;;9.85;;
37873;SDS011;23709;48.078;11.684;2024-01-15T18:43:28;24.27;;;11.20;;
37873;SDS011;23709;48.078;11.684;2024-01-15T18:46:05;24.85;;;12.45;;
37873;SDS011;23709;48.078;11.684;2024-01-15T18:48:39;25.92;;;11.50;;
37873;SDS011;23709;48.078;11.684;2024-01-15T18:51:19;28.05;;;12.05;;
37873;SDS011;23709;48.078;11.684;2024-01-15T18:53:55;23.67;;;10.90;;
37873;SDS011;23709;48.078;11.684;2024-01-15T18:56:31;21.98;;;11.65;;
37873;SDS011;23709;48.078;11.684;2024-01-15T18:59:05;18.88;;;9.35;;
37873;SDS011;23709;48.078;11.684;2024-01-15T19:01:38;19.52;;;10.20;;
37873;SDS011;23709;48.078;11.684;2024-01-15T19:04:10;23.13;;;11.23;;
37873;SDS011;23709;48.078;11.684;2024-01-15T19:09:19;18.63;;;9.63;;
37873;SDS011;23709;48.078;11.684;2024-01-15T19:11:52;19.25;;;10.60;;
37873;SDS011;23709;48.078;11.684;2024-01-15T19:14:24;20.05;;;10.77;;
37873;SDS011;23709;48.078;11.684;2024-01-15T19:16:57;16.33;;;9.13;;
37873;SDS011;23709;48.078;11.684;2024-01-15T19:19:33;18.55;;;9.23;;
37873;SDS011;23709;48.078;11.684;2024-01-15T19:22:09;15.15;;;7.90;;
37873;SDS011;23709;48.078;11.684;2024-01-15T19:24:41;17.67;;;8.65;;
37873;SDS011;23709;48.078;11.684;2024-01-15T19:27:14;15.93;;;7.47;;
37873;SDS011;23709;48.078;11.684;2024-01-15T19:29:46;14.20;;;8.43;;
37873;SDS011;23709;48.078;11.684;2024-01-15T19:32:19;15.40;;;8.98;;
37873;SDS011;23709;48.078;11.684;2024-01-15T19:34:54;15.48;;;8.20;;
37873;SDS011;23709;48.078;11.684;2024-01-15T19:37:27;17.65;;;9.45;;
37873;SDS011;23709;48.078;11.684;2024-01-15T19:39:59;16.42;;;9.25;;
37873;SDS011;23709;48.078;11.684;2024-01-15T19:42:34;16.35;;;7.57;;
37873;SDS011;23709;48.078;11.684;2024-01-15T19:45:06;16.13;;;7.90;;
37873;SDS011;23709;48.078;11.684;2024-01-15T19:47:39;12.85;;;7.85;;
37873;SDS011;23709;48.078;11.684;2024-01-15T19:50:11;14.15;;;7.43;;
37873;SDS011;23709;48.078;11.684;2024-01-15T19:52:44;13.05;;;7.35;;
37873;SDS011;23709;48.078;11.684;2024-01-15T19:55:16;16.85;;;7.85;;
37873;SDS011;23709;48.078;11.684;2024-01-15T19:57:48;18.10;;;8.02;;
37873;SDS011;23709;48.078;11.684;2024-01-15T20:00:21;14.37;;;7.47;;
37873;SDS011;23709;48.078;11.684;2024-01-15T20:02:55;18.02;;;9.10;;
37873;SDS011;23709;48.078;11.684;2024-01-15T20:05:30;15.70;;;8.25;;
37873;SDS011;23709;48.078;11.684;2024-01-15T20:08:03;12.82;;;7.20;;
37873;SDS011;23709;48.078;11.684;2024-01-15T20:10:36;12.65;;;6.85;;
37873;SDS011;23709;48.078;11.684;2024-01-15T20:13:10;12.93;;;7.00;;
37873;SDS011;23709;48.078;11.684;2024-01-15T20:15:42;13.13;;;7.20;;
37873;SDS011;23709;48.078;11.684;2024-01-15T20:18:14;11.98;;;7.05;;
37873;SDS011;23709;48.078;11.684;2024-01-15T20:20:47;10.73;;;5.97;;
37873;SDS011;23709;48.078;11.684;2024-01-15T20:23:20;12.43;;;7.00;;
